Terminal Aerodrome Forecast
Issued by NWS Sterling, VA

Current Version | Previous Version | Text Only | Print | Product List | Glossary Off
Versions: 1 2 3 4 5 6 7 8 9 10 11 12 13 14 15 16 17

000
FTUS41 KLWX 272046 AAA
TAFMRB
TAF AMD
KMRB 272046Z 2721/2818 18013G20KT P6SM SCT060
     FM272200 18013G20KT P6SM BKN060
     FM280100 19009KT P6SM BKN050
     FM280400 21005KT P6SM BKN150
     FM280800 VRB03KT 3SM BR SCT250
     FM281200 31005KT P6SM SCT200
     FM281700 23004KT P6SM FEW250=

USA.gov is the U.S. government's official web portal to all federal, state and local government web resources and services.